Thunder radar more information blitzortung!


Rain radar more information rain snow radar


Visit our other weather sites:

Template documentation
and downloads

And another site



Extreme low temperature From: 13-12-2017 09:00 Until: 09:59 warning for: Extreme low temperature Level: Yellow info button

Nearby METAR Reports

   
LEBL - Barcelona Airpor, Spain
Distance from station: SSE 30 km
Updated: 13-12-2017 09:30
Clear  
Clear  
   Wind: NNW 14.8 km/h
Wind: NNW 14.8 km/h
Temperature: 4°C
Wind Chill: 1°C
Dew Point: 0°C
Humidity: 75%
Barometer: 1024 hPa
Visibility: More than 10 km
Cloud details: Clear ft
LEBL 130830Z 33008KT 280V020 CAVOK 04/M00 Q1024 NOSIG
LELL - Sabadell, Spain
Distance from station: WNW 14 km
Updated: 13-12-2017 09:30
Clear  
Clear  
   Wind: West 13 km/h
Wind: West 13 km/h
Temperature: 5°C
Wind Chill: 2°C
Dew Point: 1°C
Humidity: 76%
Barometer: 1024 hPa
Visibility: More than 10 km
Cloud details: Clear ft
LELL 130830Z 26007KT CAVOK 05/01 Q1024
LEGE - Girona/Costa Bra, Spain
Distance from station: NE 65 km
Updated: 13-12-2017 09:43
Patches of, Fog, Few Clouds  
Patches of, Fog, Few Clouds  
   Wind: Calm
Wind: Calm
Temperature: 0°C
Dew Point: 0°C
Humidity: 100%
Barometer: 1023 hPa
Clouds: Few Clouds
Visibility: More than 10 km
Cloud details: Few Clouds 200 ft
LEGE 130843Z 00000KT 9999 0800S R20/0900U BCFG FEW002 M00/M00 Q1023
LERS - Reus (civ/Mil), Spain
Distance from station: WSW 96 km
Updated: 13-12-2017 09:30
Clear  
Clear  
   Wind: varies 1.9 km/h
Wind: varies 1.9 km/h
Temperature: 6°C
Dew Point: 2°C
Humidity: 76%
Barometer: 1025 hPa
Visibility: More than 10 km
Cloud details: Clear ft
LERS 130830Z VRB01KT CAVOK 06/02 Q1025
LESU - Pirineus/La Seu, Spain
Distance from station: NW 121 km
Updated: 11-12-2017 17:00
NOT Current
Partly Cloudy  
Partly Cloudy  
   Wind: varies 9.3 km/h
Wind: varies 9.3 km/h
Temperature: 7°C
Wind Chill: 5°C
Dew Point: 1°C
Humidity: 66%
Barometer: 991 hPa
Clouds: Partly Cloudy
Visibility: More than 10 km
Cloud details: Partly Cloudy 4000 ft
LESU 111600Z VRB05KT 9999 SCT040 07/01 Q0991
LEDA - Lleida/Alguaire, Spain
Distance from station: WNW 146 km
Updated: 10-12-2017 17:00
NOT Current
Mostly Cloudy  
Mostly Cloudy  
   Wind: varies 1.9 km/h
Wind: varies 1.9 km/h
Temperature: 8°C
Dew Point: 6°C
Humidity: 87%
Barometer: 1005 hPa
Clouds: Mostly Cloudy
Visibility: 7 km
Cloud details: Few Clouds 3500 ft,
Partly Cloudy 4500 ft,
Mostly Cloudy 5500 ft
LEDA 101600Z VRB01KT 7000 FEW035 SCT045 BKN055 08/06 Q1005
LFMP - Perpignan/Rivesa, France
Distance from station: NNE 150 km
Updated: 13-12-2017 09:30
Clear  
Clear  
   Wind: SW 5.6 km/h
Wind: SW 5.6 km/h
Temperature: 5°C
Wind Chill: 4°C
Dew Point: -5°C
Humidity: 49%
Barometer: 1022 hPa
Visibility: More than 10 km
Cloud details: Clear ft
LFMP 130830Z AUTO 23003KT CAVOK 05/M05 Q1022 NOSIG
LEPA - Palma De Mallorca, Spain
Distance from station: S 216 km
Updated: 13-12-2017 09:30
Few Clouds  
Few Clouds  
   Wind: Calm
Wind: Calm
Temperature: 5°C
Dew Point: 5°C
Humidity: 100%
Barometer: 1026 hPa
Clouds: Few Clouds
Visibility: More than 10 km
Cloud details: Few Clouds 2600 ft
LEPA 130830Z 00000KT 9999 FEW026 05/05 Q1026 NOSIG
 

Script developed by  Saratoga-weather.org Adapted for the template by  Weerstation Leuven

You find our weather info also at:

Weather Underground

AWEKAS